Terminal Aerodrome Forecast
Issued by NWS Wilmington, OH

Current Version | Previous Version | Graphics & Text | Print | Product List | Glossary On
Versions: 1 2 3 4 5 6 7 8 9 10 11 12 13 14 15 16 17 18 19 20 21
258
FTUS41 KILN 081931 AAC
TAFILN
TAF AMD
KILN 081931Z 0820/0918 25008KT P6SM VCSH SCT008 OVC015
     FM082100 28008KT P6SM -RASN SCT015 OVC025
     FM082200 28010KT 3SM -SN BKN015 OVC025
     FM090300 29012G22KT 1SM -SN OVC004
     FM091200 28013G23KT 3SM -SN BKN008 OVC012=

USA.gov is the U.S. government's official web portal to all federal, state and local government web resources and services.